sensor_id;sensor_type;location;lat;lon;timestamp;P1;durP1;ratioP1;P2;durP2;ratioP2
5553;SDS011;2800;49.528;8.666;2023-04-19T00:01:37;11.83;;;9.40;;
5553;SDS011;2800;49.528;8.666;2023-04-19T00:04:03;11.97;;;9.40;;
5553;SDS011;2800;49.528;8.666;2023-04-19T00:06:29;12.37;;;10.23;;
5553;SDS011;2800;49.528;8.666;2023-04-19T00:08:55;12.00;;;9.97;;
5553;SDS011;2800;49.528;8.666;2023-04-19T00:11:21;12.57;;;10.10;;
5553;SDS011;2800;49.528;8.666;2023-04-19T00:13:47;15.20;;;11.37;;
5553;SDS011;2800;49.528;8.666;2023-04-19T00:16:13;12.03;;;10.17;;
5553;SDS011;2800;49.528;8.666;2023-04-19T00:18:38;12.67;;;9.80;;
5553;SDS011;2800;49.528;8.666;2023-04-19T00:21:04;12.00;;;10.17;;
5553;SDS011;2800;49.528;8.666;2023-04-19T00:23:30;11.47;;;9.80;;
5553;SDS011;2800;49.528;8.666;2023-04-19T00:25:55;11.73;;;9.47;;
5553;SDS011;2800;49.528;8.666;2023-04-19T00:28:21;14.73;;;10.00;;
5553;SDS011;2800;49.528;8.666;2023-04-19T00:30:47;12.43;;;9.83;;
5553;SDS011;2800;49.528;8.666;2023-04-19T00:33:13;11.00;;;8.97;;
5553;SDS011;2800;49.528;8.666;2023-04-19T00:35:39;11.77;;;9.10;;
5553;SDS011;2800;49.528;8.666;2023-04-19T00:38:08;11.60;;;9.03;;
5553;SDS011;2800;49.528;8.666;2023-04-19T00:40:33;13.00;;;9.90;;
5553;SDS011;2800;49.528;8.666;2023-04-19T00:42:59;13.07;;;9.53;;
5553;SDS011;2800;49.528;8.666;2023-04-19T00:45:25;10.50;;;8.57;;
5553;SDS011;2800;49.528;8.666;2023-04-19T00:47:51;14.00;;;10.17;;
5553;SDS011;2800;49.528;8.666;2023-04-19T00:50:17;10.70;;;9.20;;
5553;SDS011;2800;49.528;8.666;2023-04-19T00:52:43;10.87;;;8.83;;
5553;SDS011;2800;49.528;8.666;2023-04-19T00:55:10;11.23;;;9.00;;
5553;SDS011;2800;49.528;8.666;2023-04-19T00:57:36;14.07;;;9.37;;
5553;SDS011;2800;49.528;8.666;2023-04-19T01:00:02;11.20;;;8.80;;
5553;SDS011;2800;49.528;8.666;2023-04-19T01:02:30;14.80;;;9.47;;
5553;SDS011;2800;49.528;8.666;2023-04-19T01:04:56;11.07;;;9.03;;
5553;SDS011;2800;49.528;8.666;2023-04-19T01:07:21;11.27;;;9.10;;
5553;SDS011;2800;49.528;8.666;2023-04-19T01:09:47;12.30;;;9.67;;
5553;SDS011;2800;49.528;8.666;2023-04-19T01:12:13;12.80;;;8.57;;
5553;SDS011;2800;49.528;8.666;2023-04-19T01:14:38;11.03;;;9.37;;
5553;SDS011;2800;49.528;8.666;2023-04-19T01:17:05;12.40;;;8.67;;
5553;SDS011;2800;49.528;8.666;2023-04-19T01:19:31;12.37;;;9.33;;
5553;SDS011;2800;49.528;8.666;2023-04-19T01:21:58;11.77;;;8.40;;
5553;SDS011;2800;49.528;8.666;2023-04-19T01:24:24;12.17;;;8.53;;
5553;SDS011;2800;49.528;8.666;2023-04-19T01:26:50;13.30;;;9.17;;
5553;SDS011;2800;49.528;8.666;2023-04-19T01:29:15;10.30;;;8.40;;
5553;SDS011;2800;49.528;8.666;2023-04-19T01:31:42;11.70;;;8.83;;
5553;SDS011;2800;49.528;8.666;2023-04-19T01:34:13;10.40;;;8.43;;
5553;SDS011;2800;49.528;8.666;2023-04-19T01:36:38;9.93;;;8.37;;
5553;SDS011;2800;49.528;8.666;2023-04-19T01:39:04;10.40;;;8.50;;
5553;SDS011;2800;49.528;8.666;2023-04-19T01:41:30;10.50;;;8.30;;
5553;SDS011;2800;49.528;8.666;2023-04-19T01:43:56;11.33;;;8.47;;
5553;SDS011;2800;49.528;8.666;2023-04-19T01:46:21;12.50;;;8.27;;
5553;SDS011;2800;49.528;8.666;2023-04-19T01:48:47;11.43;;;8.13;;
5553;SDS011;2800;49.528;8.666;2023-04-19T01:51:12;12.10;;;8.90;;
5553;SDS011;2800;49.528;8.666;2023-04-19T01:53:38;11.30;;;8.83;;
5553;SDS011;2800;49.528;8.666;2023-04-19T01:56:04;11.07;;;8.30;;
5553;SDS011;2800;49.528;8.666;2023-04-19T01:58:29;10.67;;;8.13;;
5553;SDS011;2800;49.528;8.666;2023-04-19T02:00:55;12.07;;;8.60;;
5553;SDS011;2800;49.528;8.666;2023-04-19T02:03:20;11.37;;;7.80;;
5553;SDS011;2800;49.528;8.666;2023-04-19T02:05:46;10.37;;;8.07;;
5553;SDS011;2800;49.528;8.666;2023-04-19T02:08:11;9.90;;;8.23;;
5553;SDS011;2800;49.528;8.666;2023-04-19T02:10:37;11.83;;;8.33;;
5553;SDS011;2800;49.528;8.666;2023-04-19T02:13:02;10.77;;;8.53;;
5553;SDS011;2800;49.528;8.666;2023-04-19T02:15:28;11.40;;;8.90;;
5553;SDS011;2800;49.528;8.666;2023-04-19T02:17:53;9.63;;;8.03;;
5553;SDS011;2800;49.528;8.666;2023-04-19T02:20:19;10.07;;;8.10;;
5553;SDS011;2800;49.528;8.666;2023-04-19T02:22:45;10.43;;;8.93;;
5553;SDS011;2800;49.528;8.666;2023-04-19T02:25:11;13.40;;;8.57;;
5553;SDS011;2800;49.528;8.666;2023-04-19T02:27:37;10.63;;;8.70;;
5553;SDS011;2800;49.528;8.666;2023-04-19T02:30:03;10.37;;;8.63;;
5553;SDS011;2800;49.528;8.666;2023-04-19T02:32:29;11.30;;;8.80;;
5553;SDS011;2800;49.528;8.666;2023-04-19T02:34:54;11.90;;;8.63;;
5553;SDS011;2800;49.528;8.666;2023-04-19T02:37:20;11.40;;;8.50;;
5553;SDS011;2800;49.528;8.666;2023-04-19T02:39:45;11.50;;;8.60;;
5553;SDS011;2800;49.528;8.666;2023-04-19T02:42:11;11.90;;;8.90;;
5553;SDS011;2800;49.528;8.666;2023-04-19T02:44:37;10.33;;;8.77;;
5553;SDS011;2800;49.528;8.666;2023-04-19T02:47:02;11.40;;;9.13;;
5553;SDS011;2800;49.528;8.666;2023-04-19T02:49:29;11.33;;;8.80;;
5553;SDS011;2800;49.528;8.666;2023-04-19T02:51:58;12.30;;;9.43;;
5553;SDS011;2800;49.528;8.666;2023-04-19T02:54:24;12.20;;;9.70;;
5553;SDS011;2800;49.528;8.666;2023-04-19T02:56:49;15.73;;;8.73;;
5553;SDS011;2800;49.528;8.666;2023-04-19T02:59:15;10.73;;;8.33;;
5553;SDS011;2800;49.528;8.666;2023-04-19T03:01:40;13.43;;;9.53;;
5553;SDS011;2800;49.528;8.666;2023-04-19T03:04:06;13.33;;;9.17;;
5553;SDS011;2800;49.528;8.666;2023-04-19T03:06:31;12.20;;;9.97;;
5553;SDS011;2800;49.528;8.666;2023-04-19T03:08:57;13.23;;;9.57;;
5553;SDS011;2800;49.528;8.666;2023-04-19T03:11:22;11.40;;;9.07;;
5553;SDS011;2800;49.528;8.666;2023-04-19T03:13:48;13.47;;;9.50;;
5553;SDS011;2800;49.528;8.666;2023-04-19T03:16:13;13.40;;;9.60;;
5553;SDS011;2800;49.528;8.666;2023-04-19T03:18:39;11.70;;;9.80;;
5553;SDS011;2800;49.528;8.666;2023-04-19T03:21:04;11.77;;;9.20;;
5553;SDS011;2800;49.528;8.666;2023-04-19T03:23:33;14.03;;;9.77;;
5553;SDS011;2800;49.528;8.666;2023-04-19T03:25:58;11.77;;;10.07;;
5553;SDS011;2800;49.528;8.666;2023-04-19T03:28:24;13.13;;;9.80;;
5553;SDS011;2800;49.528;8.666;2023-04-19T03:30:50;11.37;;;9.00;;
5553;SDS011;2800;49.528;8.666;2023-04-19T03:33:15;11.97;;;9.00;;
5553;SDS011;2800;49.528;8.666;2023-04-19T03:35:42;12.43;;;8.97;;
5553;SDS011;2800;49.528;8.666;2023-04-19T03:38:08;9.67;;;8.33;;
5553;SDS011;2800;49.528;8.666;2023-04-19T03:40:35;10.70;;;9.60;;
5553;SDS011;2800;49.528;8.666;2023-04-19T03:43:02;12.03;;;9.60;;
5553;SDS011;2800;49.528;8.666;2023-04-19T03:45:27;11.97;;;9.37;;
5553;SDS011;2800;49.528;8.666;2023-04-19T03:47:53;12.50;;;9.20;;
5553;SDS011;2800;49.528;8.666;2023-04-19T03:50:19;11.50;;;9.27;;
5553;SDS011;2800;49.528;8.666;2023-04-19T03:52:44;12.90;;;9.20;;
5553;SDS011;2800;49.528;8.666;2023-04-19T03:55:10;11.90;;;9.20;;
5553;SDS011;2800;49.528;8.666;2023-04-19T03:57:36;12.53;;;8.87;;
5553;SDS011;2800;49.528;8.666;2023-04-19T04:00:02;9.93;;;8.50;;
5553;SDS011;2800;49.528;8.666;2023-04-19T04:02:31;13.20;;;10.10;;
5553;SDS011;2800;49.528;8.666;2023-04-19T04:04:57;13.47;;;10.00;;
5553;SDS011;2800;49.528;8.666;2023-04-19T04:07:22;11.73;;;10.07;;
5553;SDS011;2800;49.528;8.666;2023-04-19T04:09:48;12.13;;;9.87;;
5553;SDS011;2800;49.528;8.666;2023-04-19T04:12:14;12.90;;;10.93;;
5553;SDS011;2800;49.528;8.666;2023-04-19T04:14:40;12.37;;;10.47;;
5553;SDS011;2800;49.528;8.666;2023-04-19T04:17:05;12.83;;;10.40;;
5553;SDS011;2800;49.528;8.666;2023-04-19T04:19:31;11.53;;;9.70;;
5553;SDS011;2800;49.528;8.666;2023-04-19T04:21:56;12.50;;;10.47;;
5553;SDS011;2800;49.528;8.666;2023-04-19T04:24:22;13.60;;;10.40;;
5553;SDS011;2800;49.528;8.666;2023-04-19T04:26:48;12.20;;;10.27;;
5553;SDS011;2800;49.528;8.666;2023-04-19T04:29:16;14.20;;;10.80;;
5553;SDS011;2800;49.528;8.666;2023-04-19T04:31:42;13.00;;;10.80;;
5553;SDS011;2800;49.528;8.666;2023-04-19T04:34:07;12.80;;;10.30;;
5553;SDS011;2800;49.528;8.666;2023-04-19T04:36:34;12.50;;;10.50;;
5553;SDS011;2800;49.528;8.666;2023-04-19T04:39:01;13.53;;;11.40;;
5553;SDS011;2800;49.528;8.666;2023-04-19T04:41:27;13.47;;;10.83;;
5553;SDS011;2800;49.528;8.666;2023-04-19T04:43:55;13.30;;;10.33;;
5553;SDS011;2800;49.528;8.666;2023-04-19T04:46:22;15.77;;;11.53;;
5553;SDS011;2800;49.528;8.666;2023-04-19T04:48:48;13.20;;;10.83;;
5553;SDS011;2800;49.528;8.666;2023-04-19T04:51:13;12.80;;;10.23;;
5553;SDS011;2800;49.528;8.666;2023-04-19T04:53:39;13.87;;;10.33;;
5553;SDS011;2800;49.528;8.666;2023-04-19T04:56:04;15.00;;;10.93;;
5553;SDS011;2800;49.528;8.666;2023-04-19T04:58:30;13.37;;;10.63;;
5553;SDS011;2800;49.528;8.666;2023-04-19T05:00:56;11.43;;;9.97;;
5553;SDS011;2800;49.528;8.666;2023-04-19T05:03:21;12.97;;;10.57;;
5553;SDS011;2800;49.528;8.666;2023-04-19T05:05:47;13.80;;;11.17;;
5553;SDS011;2800;49.528;8.666;2023-04-19T05:08:12;13.23;;;11.20;;
5553;SDS011;2800;49.528;8.666;2023-04-19T05:10:38;12.90;;;10.83;;
5553;SDS011;2800;49.528;8.666;2023-04-19T05:13:03;20.90;;;10.27;;
5553;SDS011;2800;49.528;8.666;2023-04-19T05:15:29;14.70;;;10.50;;
5553;SDS011;2800;49.528;8.666;2023-04-19T05:17:54;12.50;;;10.40;;
5553;SDS011;2800;49.528;8.666;2023-04-19T05:20:20;15.40;;;11.27;;
5553;SDS011;2800;49.528;8.666;2023-04-19T05:22:45;12.67;;;10.30;;
5553;SDS011;2800;49.528;8.666;2023-04-19T05:25:11;13.77;;;11.13;;
5553;SDS011;2800;49.528;8.666;2023-04-19T05:27:36;13.53;;;10.97;;
5553;SDS011;2800;49.528;8.666;2023-04-19T05:30:03;13.80;;;11.40;;
5553;SDS011;2800;49.528;8.666;2023-04-19T05:32:29;13.37;;;10.87;;
5553;SDS011;2800;49.528;8.666;2023-04-19T05:34:55;14.57;;;11.60;;
5553;SDS011;2800;49.528;8.666;2023-04-19T05:37:21;13.03;;;11.13;;
5553;SDS011;2800;49.528;8.666;2023-04-19T05:39:48;12.87;;;10.47;;
5553;SDS011;2800;49.528;8.666;2023-04-19T05:42:14;12.87;;;10.60;;
5553;SDS011;2800;49.528;8.666;2023-04-19T05:44:39;13.27;;;10.67;;
5553;SDS011;2800;49.528;8.666;2023-04-19T05:47:05;14.20;;;11.33;;
5553;SDS011;2800;49.528;8.666;2023-04-19T05:49:30;13.13;;;10.80;;
5553;SDS011;2800;49.528;8.666;2023-04-19T05:51:56;15.50;;;11.43;;
5553;SDS011;2800;49.528;8.666;2023-04-19T05:54:21;13.37;;;11.17;;
5553;SDS011;2800;49.528;8.666;2023-04-19T05:56:47;14.00;;;11.50;;
5553;SDS011;2800;49.528;8.666;2023-04-19T05:59:12;13.03;;;11.17;;
5553;SDS011;2800;49.528;8.666;2023-04-19T06:01:38;14.23;;;10.87;;
5553;SDS011;2800;49.528;8.666;2023-04-19T06:04:04;13.80;;;11.37;;
5553;SDS011;2800;49.528;8.666;2023-04-19T06:06:29;16.60;;;11.70;;
5553;SDS011;2800;49.528;8.666;2023-04-19T06:08:55;16.20;;;12.20;;
5553;SDS011;2800;49.528;8.666;2023-04-19T06:11:20;13.93;;;11.17;;
5553;SDS011;2800;49.528;8.666;2023-04-19T06:13:47;14.60;;;11.47;;
5553;SDS011;2800;49.528;8.666;2023-04-19T06:16:12;15.20;;;11.83;;
5553;SDS011;2800;49.528;8.666;2023-04-19T06:18:37;13.13;;;10.93;;
5553;SDS011;2800;49.528;8.666;2023-04-19T06:21:03;15.27;;;10.30;;
5553;SDS011;2800;49.528;8.666;2023-04-19T06:23:30;16.60;;;11.27;;
5553;SDS011;2800;49.528;8.666;2023-04-19T06:25:55;12.57;;;9.70;;
5553;SDS011;2800;49.528;8.666;2023-04-19T06:28:21;15.40;;;9.67;;
5553;SDS011;2800;49.528;8.666;2023-04-19T06:30:46;12.37;;;8.57;;
5553;SDS011;2800;49.528;8.666;2023-04-19T06:33:12;11.87;;;8.40;;
5553;SDS011;2800;49.528;8.666;2023-04-19T06:35:37;12.77;;;9.73;;
5553;SDS011;2800;49.528;8.666;2023-04-19T06:38:03;12.03;;;8.90;;
5553;SDS011;2800;49.528;8.666;2023-04-19T06:40:28;13.10;;;8.50;;
5553;SDS011;2800;49.528;8.666;2023-04-19T06:42:54;13.10;;;9.63;;
5553;SDS011;2800;49.528;8.666;2023-04-19T06:45:20;11.07;;;8.70;;
5553;SDS011;2800;49.528;8.666;2023-04-19T06:47:45;11.50;;;8.23;;
5553;SDS011;2800;49.528;8.666;2023-04-19T06:50:11;10.77;;;8.70;;
5553;SDS011;2800;49.528;8.666;2023-04-19T06:52:37;11.27;;;8.73;;
5553;SDS011;2800;49.528;8.666;2023-04-19T06:55:04;12.17;;;8.60;;
5553;SDS011;2800;49.528;8.666;2023-04-19T06:57:30;16.80;;;9.70;;
5553;SDS011;2800;49.528;8.666;2023-04-19T06:59:56;14.43;;;11.30;;
5553;SDS011;2800;49.528;8.666;2023-04-19T07:02:22;17.63;;;12.80;;
5553;SDS011;2800;49.528;8.666;2023-04-19T07:04:48;11.70;;;10.37;;
5553;SDS011;2800;49.528;8.666;2023-04-19T07:07:13;12.30;;;10.00;;
5553;SDS011;2800;49.528;8.666;2023-04-19T07:09:39;13.80;;;9.80;;
5553;SDS011;2800;49.528;8.666;2023-04-19T07:12:05;13.10;;;9.30;;
5553;SDS011;2800;49.528;8.666;2023-04-19T07:14:30;12.50;;;8.63;;
5553;SDS011;2800;49.528;8.666;2023-04-19T07:16:56;12.00;;;9.03;;
5553;SDS011;2800;49.528;8.666;2023-04-19T07:19:22;11.00;;;8.40;;
5553;SDS011;2800;49.528;8.666;2023-04-19T07:21:47;12.50;;;10.20;;
5553;SDS011;2800;49.528;8.666;2023-04-19T07:24:13;16.23;;;8.03;;
5553;SDS011;2800;49.528;8.666;2023-04-19T07:26:40;11.50;;;8.37;;
5553;SDS011;2800;49.528;8.666;2023-04-19T07:29:05;11.00;;;8.47;;
5553;SDS011;2800;49.528;8.666;2023-04-19T07:31:31;12.00;;;7.93;;
5553;SDS011;2800;49.528;8.666;2023-04-19T07:33:56;13.30;;;7.93;;
5553;SDS011;2800;49.528;8.666;2023-04-19T07:36:22;10.80;;;7.80;;
5553;SDS011;2800;49.528;8.666;2023-04-19T07:38:47;11.50;;;8.13;;
5553;SDS011;2800;49.528;8.666;2023-04-19T07:41:13;10.23;;;7.97;;
5553;SDS011;2800;49.528;8.666;2023-04-19T07:43:38;13.07;;;8.40;;
5553;SDS011;2800;49.528;8.666;2023-04-19T07:46:10;11.87;;;8.53;;
5553;SDS011;2800;49.528;8.666;2023-04-19T07:48:38;12.97;;;8.20;;
5553;SDS011;2800;49.528;8.666;2023-04-19T07:51:07;11.70;;;8.60;;
5553;SDS011;2800;49.528;8.666;2023-04-19T07:53:37;11.63;;;7.23;;
5553;SDS011;2800;49.528;8.666;2023-04-19T07:56:04;13.10;;;8.83;;
5553;SDS011;2800;49.528;8.666;2023-04-19T07:58:30;10.40;;;7.80;;
5553;SDS011;2800;49.528;8.666;2023-04-19T08:00:56;11.33;;;8.63;;
5553;SDS011;2800;49.528;8.666;2023-04-19T08:03:21;10.53;;;8.23;;
5553;SDS011;2800;49.528;8.666;2023-04-19T08:05:47;12.17;;;8.57;;
5553;SDS011;2800;49.528;8.666;2023-04-19T08:08:12;11.03;;;8.90;;
5553;SDS011;2800;49.528;8.666;2023-04-19T08:10:38;12.70;;;9.37;;
5553;SDS011;2800;49.528;8.666;2023-04-19T08:13:03;12.33;;;9.30;;
5553;SDS011;2800;49.528;8.666;2023-04-19T08:15:29;11.43;;;8.03;;
5553;SDS011;2800;49.528;8.666;2023-04-19T08:17:55;10.80;;;8.37;;
5553;SDS011;2800;49.528;8.666;2023-04-19T08:20:21;9.70;;;8.20;;
5553;SDS011;2800;49.528;8.666;2023-04-19T08:22:47;11.70;;;8.70;;
5553;SDS011;2800;49.528;8.666;2023-04-19T08:25:12;13.40;;;8.87;;
5553;SDS011;2800;49.528;8.666;2023-04-19T08:27:38;12.13;;;8.60;;
5553;SDS011;2800;49.528;8.666;2023-04-19T08:30:03;11.20;;;8.70;;
5553;SDS011;2800;49.528;8.666;2023-04-19T08:32:31;11.77;;;8.17;;
5553;SDS011;2800;49.528;8.666;2023-04-19T08:34:57;12.80;;;8.80;;
5553;SDS011;2800;49.528;8.666;2023-04-19T08:37:24;13.37;;;8.27;;
5553;SDS011;2800;49.528;8.666;2023-04-19T08:39:50;11.10;;;8.00;;
5553;SDS011;2800;49.528;8.666;2023-04-19T08:42:16;14.03;;;9.43;;
5553;SDS011;2800;49.528;8.666;2023-04-19T08:44:42;10.60;;;8.50;;
5553;SDS011;2800;49.528;8.666;2023-04-19T08:47:09;12.93;;;7.93;;
5553;SDS011;2800;49.528;8.666;2023-04-19T08:49:35;11.40;;;8.40;;
5553;SDS011;2800;49.528;8.666;2023-04-19T08:52:03;11.23;;;8.60;;
5553;SDS011;2800;49.528;8.666;2023-04-19T08:54:31;13.60;;;8.30;;
5553;SDS011;2800;49.528;8.666;2023-04-19T08:56:59;13.40;;;9.60;;
5553;SDS011;2800;49.528;8.666;2023-04-19T08:59:25;13.03;;;8.70;;
5553;SDS011;2800;49.528;8.666;2023-04-19T09:01:52;12.90;;;9.00;;
5553;SDS011;2800;49.528;8.666;2023-04-19T09:04:20;10.90;;;8.27;;
5553;SDS011;2800;49.528;8.666;2023-04-19T09:06:46;9.97;;;8.03;;
5553;SDS011;2800;49.528;8.666;2023-04-19T09:09:13;12.63;;;7.97;;
5553;SDS011;2800;49.528;8.666;2023-04-19T09:11:39;10.50;;;7.93;;
5553;SDS011;2800;49.528;8.666;2023-04-19T09:14:08;11.30;;;8.50;;
5553;SDS011;2800;49.528;8.666;2023-04-19T09:16:34;10.80;;;8.53;;
5553;SDS011;2800;49.528;8.666;2023-04-19T09:19:03;12.37;;;8.70;;
5553;SDS011;2800;49.528;8.666;2023-04-19T09:21:30;9.70;;;7.63;;
5553;SDS011;2800;49.528;8.666;2023-04-19T09:23:57;11.07;;;8.40;;
5553;SDS011;2800;49.528;8.666;2023-04-19T09:26:23;12.93;;;9.67;;
5553;SDS011;2800;49.528;8.666;2023-04-19T09:31:32;9.67;;;7.70;;
5553;SDS011;2800;49.528;8.666;2023-04-19T09:34:11;14.33;;;9.37;;
5553;SDS011;2800;49.528;8.666;2023-04-19T09:36:38;12.57;;;9.60;;
5553;SDS011;2800;49.528;8.666;2023-04-19T09:39:04;12.20;;;10.10;;
5553;SDS011;2800;49.528;8.666;2023-04-19T09:41:30;11.40;;;8.50;;
5553;SDS011;2800;49.528;8.666;2023-04-19T09:44:08;10.33;;;8.43;;
5553;SDS011;2800;49.528;8.666;2023-04-19T09:46:35;12.70;;;10.17;;
5553;SDS011;2800;49.528;8.666;2023-04-19T09:51:47;12.40;;;10.00;;
5553;SDS011;2800;49.528;8.666;2023-04-19T09:54:21;15.03;;;10.63;;
5553;SDS011;2800;49.528;8.666;2023-04-19T09:56:48;13.83;;;10.00;;
5553;SDS011;2800;49.528;8.666;2023-04-19T09:59:14;14.63;;;10.70;;
5553;SDS011;2800;49.528;8.666;2023-04-19T10:01:47;15.63;;;10.20;;
5553;SDS011;2800;49.528;8.666;2023-04-19T10:04:19;13.80;;;10.80;;
5553;SDS011;2800;49.528;8.666;2023-04-19T10:06:49;19.17;;;12.30;;
5553;SDS011;2800;49.528;8.666;2023-04-19T10:09:16;16.03;;;10.97;;
5553;SDS011;2800;49.528;8.666;2023-04-19T10:11:45;16.53;;;12.03;;
5553;SDS011;2800;49.528;8.666;2023-04-19T10:14:13;15.00;;;10.80;;
5553;SDS011;2800;49.528;8.666;2023-04-19T10:16:40;15.07;;;11.23;;
5553;SDS011;2800;49.528;8.666;2023-04-19T10:19:10;12.70;;;10.33;;
5553;SDS011;2800;49.528;8.666;2023-04-19T10:21:37;19.30;;;10.33;;
5553;SDS011;2800;49.528;8.666;2023-04-19T10:24:05;13.63;;;10.37;;
5553;SDS011;2800;49.528;8.666;2023-04-19T10:27:04;14.93;;;11.97;;
5553;SDS011;2800;49.528;8.666;2023-04-19T10:32:20;12.83;;;9.43;;
5553;SDS011;2800;49.528;8.666;2023-04-19T10:34:46;12.50;;;9.60;;
5553;SDS011;2800;49.528;8.666;2023-04-19T10:37:15;15.57;;;12.00;;
5553;SDS011;2800;49.528;8.666;2023-04-19T10:39:42;13.47;;;10.67;;
5553;SDS011;2800;49.528;8.666;2023-04-19T10:42:08;15.53;;;10.23;;
5553;SDS011;2800;49.528;8.666;2023-04-19T10:44:34;16.20;;;11.10;;
5553;SDS011;2800;49.528;8.666;2023-04-19T10:46:59;12.60;;;9.33;;
5553;SDS011;2800;49.528;8.666;2023-04-19T10:49:25;13.47;;;8.80;;
5553;SDS011;2800;49.528;8.666;2023-04-19T10:51:52;30.23;;;23.63;;
5553;SDS011;2800;49.528;8.666;2023-04-19T10:54:26;15.17;;;10.90;;
5553;SDS011;2800;49.528;8.666;2023-04-19T10:56:59;12.60;;;8.03;;
5553;SDS011;2800;49.528;8.666;2023-04-19T10:59:32;10.30;;;7.37;;
5553;SDS011;2800;49.528;8.666;2023-04-19T11:01:59;10.00;;;6.37;;
5553;SDS011;2800;49.528;8.666;2023-04-19T11:09:31;10.97;;;6.77;;
5553;SDS011;2800;49.528;8.666;2023-04-19T11:14:35;9.70;;;6.37;;
5553;SDS011;2800;49.528;8.666;2023-04-19T11:17:13;8.13;;;6.27;;
5553;SDS011;2800;49.528;8.666;2023-04-19T11:22:17;10.83;;;6.33;;
5553;SDS011;2800;49.528;8.666;2023-04-19T11:24:48;9.07;;;6.10;;
5553;SDS011;2800;49.528;8.666;2023-04-19T11:27:13;7.80;;;5.60;;
5553;SDS011;2800;49.528;8.666;2023-04-19T11:29:39;8.87;;;5.90;;
5553;SDS011;2800;49.528;8.666;2023-04-19T11:32:05;8.40;;;5.20;;
5553;SDS011;2800;49.528;8.666;2023-04-19T11:34:37;8.53;;;5.40;;
5553;SDS011;2800;49.528;8.666;2023-04-19T11:37:04;10.00;;;5.07;;
5553;SDS011;2800;49.528;8.666;2023-04-19T11:39:30;7.63;;;5.43;;
5553;SDS011;2800;49.528;8.666;2023-04-19T11:41:55;8.60;;;5.17;;
5553;SDS011;2800;49.528;8.666;2023-04-19T11:44:21;7.33;;;4.90;;
5553;SDS011;2800;49.528;8.666;2023-04-19T11:46:57;9.90;;;5.13;;
5553;SDS011;2800;49.528;8.666;2023-04-19T11:49:26;6.53;;;4.53;;
5553;SDS011;2800;49.528;8.666;2023-04-19T11:51:56;7.00;;;4.70;;
5553;SDS011;2800;49.528;8.666;2023-04-19T11:54:23;8.17;;;4.97;;
5553;SDS011;2800;49.528;8.666;2023-04-19T11:56:57;7.03;;;4.87;;
5553;SDS011;2800;49.528;8.666;2023-04-19T11:59:23;8.97;;;4.90;;
5553;SDS011;2800;49.528;8.666;2023-04-19T12:01:49;8.70;;;4.70;;
5553;SDS011;2800;49.528;8.666;2023-04-19T12:04:14;6.70;;;4.50;;
5553;SDS011;2800;49.528;8.666;2023-04-19T12:06:40;6.80;;;4.77;;
5553;SDS011;2800;49.528;8.666;2023-04-19T12:09:06;7.00;;;4.80;;
5553;SDS011;2800;49.528;8.666;2023-04-19T12:11:43;6.90;;;4.50;;
5553;SDS011;2800;49.528;8.666;2023-04-19T12:14:14;9.10;;;5.00;;
5553;SDS011;2800;49.528;8.666;2023-04-19T12:16:40;6.87;;;4.90;;
5553;SDS011;2800;49.528;8.666;2023-04-19T12:19:13;7.80;;;4.60;;
5553;SDS011;2800;49.528;8.666;2023-04-19T12:21:41;8.47;;;5.30;;
5553;SDS011;2800;49.528;8.666;2023-04-19T12:24:07;7.30;;;4.60;;
5553;SDS011;2800;49.528;8.666;2023-04-19T12:26:33;6.40;;;4.40;;
5553;SDS011;2800;49.528;8.666;2023-04-19T12:28:59;9.40;;;4.37;;
5553;SDS011;2800;49.528;8.666;2023-04-19T12:31:26;7.33;;;4.40;;
5553;SDS011;2800;49.528;8.666;2023-04-19T12:33:52;7.27;;;4.70;;
5553;SDS011;2800;49.528;8.666;2023-04-19T12:36:18;7.57;;;4.20;;
5553;SDS011;2800;49.528;8.666;2023-04-19T12:38:43;7.00;;;4.37;;
5553;SDS011;2800;49.528;8.666;2023-04-19T12:41:09;10.87;;;5.30;;
5553;SDS011;2800;49.528;8.666;2023-04-19T12:43:35;6.33;;;4.53;;
5553;SDS011;2800;49.528;8.666;2023-04-19T12:46:00;11.53;;;7.27;;
5553;SDS011;2800;49.528;8.666;2023-04-19T12:48:26;10.60;;;6.70;;
5553;SDS011;2800;49.528;8.666;2023-04-19T12:50:52;6.30;;;3.93;;
5553;SDS011;2800;49.528;8.666;2023-04-19T12:53:18;11.67;;;7.80;;
5553;SDS011;2800;49.528;8.666;2023-04-19T12:55:44;6.10;;;4.10;;
5553;SDS011;2800;49.528;8.666;2023-04-19T12:58:12;6.83;;;3.93;;
5553;SDS011;2800;49.528;8.666;2023-04-19T13:00:38;5.30;;;3.50;;
5553;SDS011;2800;49.528;8.666;2023-04-19T13:03:03;6.20;;;4.20;;
5553;SDS011;2800;49.528;8.666;2023-04-19T13:05:29;6.87;;;3.93;;
5553;SDS011;2800;49.528;8.666;2023-04-19T13:07:54;10.20;;;5.03;;
5553;SDS011;2800;49.528;8.666;2023-04-19T13:10:20;5.97;;;4.10;;
5553;SDS011;2800;49.528;8.666;2023-04-19T13:12:45;6.10;;;4.00;;
5553;SDS011;2800;49.528;8.666;2023-04-19T13:15:11;8.97;;;5.00;;
5553;SDS011;2800;49.528;8.666;2023-04-19T13:17:37;5.93;;;3.90;;
5553;SDS011;2800;49.528;8.666;2023-04-19T13:20:02;6.60;;;3.80;;
5553;SDS011;2800;49.528;8.666;2023-04-19T13:22:30;11.77;;;4.47;;
5553;SDS011;2800;49.528;8.666;2023-04-19T13:24:56;6.73;;;3.87;;
5553;SDS011;2800;49.528;8.666;2023-04-19T13:27:22;6.07;;;3.90;;
5553;SDS011;2800;49.528;8.666;2023-04-19T13:29:47;9.90;;;5.07;;
5553;SDS011;2800;49.528;8.666;2023-04-19T13:32:13;8.90;;;5.07;;
5553;SDS011;2800;49.528;8.666;2023-04-19T13:34:38;8.00;;;4.40;;
5553;SDS011;2800;49.528;8.666;2023-04-19T13:37:04;8.40;;;4.07;;
5553;SDS011;2800;49.528;8.666;2023-04-19T13:39:31;6.50;;;3.87;;
5553;SDS011;2800;49.528;8.666;2023-04-19T13:41:57;5.87;;;3.93;;
5553;SDS011;2800;49.528;8.666;2023-04-19T13:44:22;7.77;;;4.70;;
5553;SDS011;2800;49.528;8.666;2023-04-19T13:46:49;6.43;;;3.53;;
5553;SDS011;2800;49.528;8.666;2023-04-19T13:49:15;6.23;;;3.90;;
5553;SDS011;2800;49.528;8.666;2023-04-19T13:51:41;5.83;;;3.57;;
5553;SDS011;2800;49.528;8.666;2023-04-19T13:54:06;5.53;;;3.50;;
5553;SDS011;2800;49.528;8.666;2023-04-19T13:56:32;5.80;;;3.67;;
5553;SDS011;2800;49.528;8.666;2023-04-19T13:58:57;7.17;;;3.90;;
5553;SDS011;2800;49.528;8.666;2023-04-19T14:01:23;6.40;;;3.50;;
5553;SDS011;2800;49.528;8.666;2023-04-19T14:03:49;6.53;;;3.60;;
5553;SDS011;2800;49.528;8.666;2023-04-19T14:06:14;6.77;;;3.20;;
5553;SDS011;2800;49.528;8.666;2023-04-19T14:08:40;6.33;;;3.40;;
5553;SDS011;2800;49.528;8.666;2023-04-19T14:11:06;6.00;;;3.30;;
5553;SDS011;2800;49.528;8.666;2023-04-19T14:13:32;4.37;;;3.00;;
5553;SDS011;2800;49.528;8.666;2023-04-19T14:15:57;6.83;;;3.10;;
5553;SDS011;2800;49.528;8.666;2023-04-19T14:18:23;5.73;;;3.00;;
5553;SDS011;2800;49.528;8.666;2023-04-19T14:20:48;6.10;;;3.53;;
5553;SDS011;2800;49.528;8.666;2023-04-19T14:23:14;9.93;;;3.67;;
5553;SDS011;2800;49.528;8.666;2023-04-19T14:25:39;6.73;;;3.17;;
5553;SDS011;2800;49.528;8.666;2023-04-19T14:28:05;5.07;;;3.00;;
5553;SDS011;2800;49.528;8.666;2023-04-19T14:30:30;5.97;;;3.00;;
5553;SDS011;2800;49.528;8.666;2023-04-19T14:32:56;6.57;;;2.90;;
5553;SDS011;2800;49.528;8.666;2023-04-19T14:35:21;8.17;;;3.40;;
5553;SDS011;2800;49.528;8.666;2023-04-19T14:37:47;5.90;;;3.30;;
5553;SDS011;2800;49.528;8.666;2023-04-19T14:40:13;5.93;;;3.47;;
5553;SDS011;2800;49.528;8.666;2023-04-19T14:42:38;8.10;;;4.07;;
5553;SDS011;2800;49.528;8.666;2023-04-19T14:45:04;5.10;;;2.90;;
5553;SDS011;2800;49.528;8.666;2023-04-19T14:47:30;4.47;;;2.47;;
5553;SDS011;2800;49.528;8.666;2023-04-19T14:49:56;4.20;;;2.30;;
5553;SDS011;2800;49.528;8.666;2023-04-19T14:52:21;6.23;;;2.90;;
5553;SDS011;2800;49.528;8.666;2023-04-19T14:54:48;3.87;;;2.30;;
5553;SDS011;2800;49.528;8.666;2023-04-19T14:57:13;5.13;;;2.60;;
5553;SDS011;2800;49.528;8.666;2023-04-19T14:59:39;4.90;;;2.40;;
5553;SDS011;2800;49.528;8.666;2023-04-19T15:02:04;4.90;;;2.50;;
5553;SDS011;2800;49.528;8.666;2023-04-19T15:04:32;4.63;;;2.40;;
5553;SDS011;2800;49.528;8.666;2023-04-19T15:06:59;6.60;;;2.27;;
5553;SDS011;2800;49.528;8.666;2023-04-19T15:09:24;4.00;;;2.20;;
5553;SDS011;2800;49.528;8.666;2023-04-19T15:11:50;4.10;;;2.03;;
5553;SDS011;2800;49.528;8.666;2023-04-19T15:14:15;4.70;;;2.40;;
5553;SDS011;2800;49.528;8.666;2023-04-19T15:16:41;4.93;;;2.63;;